sensor_id;sensor_type;location;lat;lon;timestamp;P1;durP1;ratioP1;P2;durP2;ratioP2
34673;SDS011;20879;55.668;37.858;2023-07-28T00:00:18;14.85;;;12.52;;
34673;SDS011;20879;55.668;37.858;2023-07-28T00:02:48;16.52;;;12.48;;
34673;SDS011;20879;55.668;37.858;2023-07-28T00:05:20;19.85;;;12.95;;
34673;SDS011;20879;55.668;37.858;2023-07-28T00:07:54;17.42;;;12.70;;
34673;SDS011;20879;55.668;37.858;2023-07-28T00:10:25;18.88;;;11.85;;
34673;SDS011;20879;55.668;37.858;2023-07-28T00:13:02;19.17;;;11.93;;
34673;SDS011;20879;55.668;37.858;2023-07-28T00:15:34;20.60;;;11.93;;
34673;SDS011;20879;55.668;37.858;2023-07-28T00:18:14;16.95;;;12.30;;
34673;SDS011;20879;55.668;37.858;2023-07-28T00:20:45;17.63;;;12.02;;
34673;SDS011;20879;55.668;37.858;2023-07-28T00:23:21;18.73;;;11.98;;
34673;SDS011;20879;55.668;37.858;2023-07-28T00:25:51;15.80;;;11.75;;
34673;SDS011;20879;55.668;37.858;2023-07-28T00:28:33;19.75;;;11.30;;
34673;SDS011;20879;55.668;37.858;2023-07-28T00:31:08;15.82;;;12.02;;
34673;SDS011;20879;55.668;37.858;2023-07-28T00:33:37;13.23;;;11.63;;
34673;SDS011;20879;55.668;37.858;2023-07-28T00:36:15;20.38;;;12.27;;
34673;SDS011;20879;55.668;37.858;2023-07-28T00:38:49;17.50;;;11.75;;
34673;SDS011;20879;55.668;37.858;2023-07-28T00:41:19;19.70;;;12.02;;
34673;SDS011;20879;55.668;37.858;2023-07-28T00:43:49;16.83;;;11.90;;
34673;SDS011;20879;55.668;37.858;2023-07-28T00:46:20;22.70;;;13.00;;
34673;SDS011;20879;55.668;37.858;2023-07-28T00:48:54;17.33;;;12.18;;
34673;SDS011;20879;55.668;37.858;2023-07-28T00:51:30;17.20;;;11.88;;
34673;SDS011;20879;55.668;37.858;2023-07-28T00:54:02;18.88;;;12.65;;
34673;SDS011;20879;55.668;37.858;2023-07-28T00:56:41;19.73;;;12.53;;
34673;SDS011;20879;55.668;37.858;2023-07-28T00:59:16;16.70;;;12.73;;
34673;SDS011;20879;55.668;37.858;2023-07-28T01:01:46;16.92;;;12.40;;
34673;SDS011;20879;55.668;37.858;2023-07-28T01:04:15;17.00;;;13.07;;
34673;SDS011;20879;55.668;37.858;2023-07-28T01:06:48;17.30;;;12.90;;
34673;SDS011;20879;55.668;37.858;2023-07-28T01:09:36;20.17;;;12.63;;
34673;SDS011;20879;55.668;37.858;2023-07-28T01:12:14;21.02;;;12.70;;
34673;SDS011;20879;55.668;37.858;2023-07-28T01:14:54;16.77;;;12.60;;
34673;SDS011;20879;55.668;37.858;2023-07-28T01:17:24;19.33;;;14.00;;
34673;SDS011;20879;55.668;37.858;2023-07-28T01:19:53;18.90;;;13.57;;
34673;SDS011;20879;55.668;37.858;2023-07-28T01:22:29;18.38;;;13.55;;
34673;SDS011;20879;55.668;37.858;2023-07-28T01:25:18;19.83;;;14.25;;
34673;SDS011;20879;55.668;37.858;2023-07-28T01:28:05;20.83;;;14.15;;
34673;SDS011;20879;55.668;37.858;2023-07-28T01:30:42;20.65;;;14.20;;
34673;SDS011;20879;55.668;37.858;2023-07-28T01:33:12;21.58;;;14.77;;
34673;SDS011;20879;55.668;37.858;2023-07-28T01:35:43;36.45;;;15.57;;
34673;SDS011;20879;55.668;37.858;2023-07-28T01:38:13;27.08;;;14.63;;
34673;SDS011;20879;55.668;37.858;2023-07-28T01:40:48;26.90;;;15.00;;
34673;SDS011;20879;55.668;37.858;2023-07-28T01:43:19;27.70;;;15.68;;
34673;SDS011;20879;55.668;37.858;2023-07-28T01:45:50;27.67;;;16.02;;
34673;SDS011;20879;55.668;37.858;2023-07-28T01:48:25;33.67;;;16.58;;
34673;SDS011;20879;55.668;37.858;2023-07-28T01:50:56;29.52;;;16.77;;
34673;SDS011;20879;55.668;37.858;2023-07-28T01:55:57;20.17;;;14.15;;
34673;SDS011;20879;55.668;37.858;2023-07-28T01:58:32;18.40;;;14.98;;
34673;SDS011;20879;55.668;37.858;2023-07-28T02:01:02;21.67;;;15.05;;
34673;SDS011;20879;55.668;37.858;2023-07-28T02:03:32;18.88;;;14.70;;
34673;SDS011;20879;55.668;37.858;2023-07-28T02:06:01;18.98;;;15.65;;
34673;SDS011;20879;55.668;37.858;2023-07-28T02:08:39;20.08;;;15.23;;
34673;SDS011;20879;55.668;37.858;2023-07-28T02:11:15;21.13;;;15.18;;
34673;SDS011;20879;55.668;37.858;2023-07-28T02:13:47;20.15;;;14.98;;
34673;SDS011;20879;55.668;37.858;2023-07-28T02:16:17;18.58;;;14.77;;
34673;SDS011;20879;55.668;37.858;2023-07-28T02:18:48;19.67;;;14.52;;
34673;SDS011;20879;55.668;37.858;2023-07-28T02:21:22;19.85;;;14.45;;
34673;SDS011;20879;55.668;37.858;2023-07-28T02:23:53;18.33;;;13.75;;
34673;SDS011;20879;55.668;37.858;2023-07-28T02:26:23;21.52;;;15.45;;
34673;SDS011;20879;55.668;37.858;2023-07-28T02:28:55;17.23;;;15.18;;
34673;SDS011;20879;55.668;37.858;2023-07-28T02:31:34;19.70;;;15.32;;
34673;SDS011;20879;55.668;37.858;2023-07-28T02:34:04;20.17;;;14.82;;
34673;SDS011;20879;55.668;37.858;2023-07-28T02:36:44;21.63;;;14.48;;
34673;SDS011;20879;55.668;37.858;2023-07-28T02:39:16;17.52;;;14.13;;
34673;SDS011;20879;55.668;37.858;2023-07-28T02:41:49;18.25;;;15.02;;
34673;SDS011;20879;55.668;37.858;2023-07-28T02:44:28;21.63;;;14.77;;
34673;SDS011;20879;55.668;37.858;2023-07-28T02:47:00;20.55;;;14.63;;
34673;SDS011;20879;55.668;37.858;2023-07-28T02:49:37;24.42;;;14.48;;
34673;SDS011;20879;55.668;37.858;2023-07-28T02:52:10;20.00;;;14.35;;
34673;SDS011;20879;55.668;37.858;2023-07-28T02:54:47;16.38;;;13.95;;
34673;SDS011;20879;55.668;37.858;2023-07-28T02:57:19;18.00;;;14.00;;
34673;SDS011;20879;55.668;37.858;2023-07-28T02:59:51;17.30;;;14.20;;
34673;SDS011;20879;55.668;37.858;2023-07-28T03:02:28;20.17;;;14.48;;
34673;SDS011;20879;55.668;37.858;2023-07-28T03:04:59;24.00;;;13.98;;
34673;SDS011;20879;55.668;37.858;2023-07-28T03:07:53;17.40;;;14.40;;
34673;SDS011;20879;55.668;37.858;2023-07-28T03:10:23;20.58;;;14.00;;
34673;SDS011;20879;55.668;37.858;2023-07-28T03:12:58;20.20;;;14.68;;
34673;SDS011;20879;55.668;37.858;2023-07-28T03:15:29;19.55;;;13.60;;
34673;SDS011;20879;55.668;37.858;2023-07-28T03:18:05;17.92;;;13.55;;
34673;SDS011;20879;55.668;37.858;2023-07-28T03:20:34;18.73;;;13.27;;
34673;SDS011;20879;55.668;37.858;2023-07-28T03:23:09;20.50;;;13.32;;
34673;SDS011;20879;55.668;37.858;2023-07-28T03:25:46;19.25;;;13.43;;
34673;SDS011;20879;55.668;37.858;2023-07-28T03:28:19;19.77;;;13.75;;
34673;SDS011;20879;55.668;37.858;2023-07-28T03:30:52;18.67;;;12.27;;
34673;SDS011;20879;55.668;37.858;2023-07-28T03:33:27;16.42;;;12.65;;
34673;SDS011;20879;55.668;37.858;2023-07-28T03:35:57;20.05;;;13.63;;
34673;SDS011;20879;55.668;37.858;2023-07-28T03:38:31;21.35;;;14.25;;
34673;SDS011;20879;55.668;37.858;2023-07-28T03:41:05;16.65;;;13.20;;
34673;SDS011;20879;55.668;37.858;2023-07-28T03:43:36;20.25;;;12.85;;
34673;SDS011;20879;55.668;37.858;2023-07-28T03:46:09;19.67;;;13.05;;
34673;SDS011;20879;55.668;37.858;2023-07-28T03:48:38;21.50;;;13.43;;
34673;SDS011;20879;55.668;37.858;2023-07-28T03:51:14;16.23;;;12.77;;
34673;SDS011;20879;55.668;37.858;2023-07-28T03:53:48;21.70;;;14.13;;
34673;SDS011;20879;55.668;37.858;2023-07-28T03:58:56;22.77;;;15.68;;
34673;SDS011;20879;55.668;37.858;2023-07-28T04:01:29;25.73;;;15.48;;
34673;SDS011;20879;55.668;37.858;2023-07-28T04:04:07;17.67;;;14.43;;
34673;SDS011;20879;55.668;37.858;2023-07-28T04:06:49;13.40;;;10.85;;
34673;SDS011;20879;55.668;37.858;2023-07-28T04:09:30;20.30;;;13.55;;
34673;SDS011;20879;55.668;37.858;2023-07-28T04:12:01;18.90;;;14.98;;
34673;SDS011;20879;55.668;37.858;2023-07-28T04:14:34;16.38;;;12.95;;
34673;SDS011;20879;55.668;37.858;2023-07-28T04:17:10;18.33;;;13.70;;
34673;SDS011;20879;55.668;37.858;2023-07-28T04:19:40;17.80;;;11.45;;
34673;SDS011;20879;55.668;37.858;2023-07-28T04:22:17;20.10;;;13.43;;
34673;SDS011;20879;55.668;37.858;2023-07-28T04:24:51;17.70;;;12.40;;
34673;SDS011;20879;55.668;37.858;2023-07-28T04:27:21;16.65;;;12.13;;
34673;SDS011;20879;55.668;37.858;2023-07-28T04:29:57;15.40;;;11.25;;
34673;SDS011;20879;55.668;37.858;2023-07-28T04:32:33;15.10;;;11.05;;
34673;SDS011;20879;55.668;37.858;2023-07-28T04:35:12;15.30;;;10.70;;
34673;SDS011;20879;55.668;37.858;2023-07-28T04:38:21;16.70;;;10.55;;
34673;SDS011;20879;55.668;37.858;2023-07-28T04:40:57;17.70;;;11.07;;
34673;SDS011;20879;55.668;37.858;2023-07-28T04:44:02;19.65;;;11.10;;
34673;SDS011;20879;55.668;37.858;2023-07-28T04:46:38;18.27;;;11.93;;
34673;SDS011;20879;55.668;37.858;2023-07-28T04:49:15;15.45;;;10.43;;
34673;SDS011;20879;55.668;37.858;2023-07-28T04:52:28;16.50;;;10.68;;
34673;SDS011;20879;55.668;37.858;2023-07-28T04:55:23;16.42;;;10.38;;
34673;SDS011;20879;55.668;37.858;2023-07-28T04:57:59;15.48;;;9.88;;
34673;SDS011;20879;55.668;37.858;2023-07-28T05:00:41;18.92;;;10.10;;
34673;SDS011;20879;55.668;37.858;2023-07-28T05:03:11;13.52;;;10.15;;
34673;SDS011;20879;55.668;37.858;2023-07-28T05:05:50;14.27;;;9.73;;
34673;SDS011;20879;55.668;37.858;2023-07-28T05:08:20;16.08;;;9.55;;
34673;SDS011;20879;55.668;37.858;2023-07-28T05:10:53;13.68;;;8.57;;
34673;SDS011;20879;55.668;37.858;2023-07-28T05:13:33;12.73;;;8.73;;
34673;SDS011;20879;55.668;37.858;2023-07-28T05:16:05;16.17;;;8.38;;
34673;SDS011;20879;55.668;37.858;2023-07-28T05:18:55;12.88;;;8.35;;
34673;SDS011;20879;55.668;37.858;2023-07-28T05:21:35;11.95;;;8.10;;
34673;SDS011;20879;55.668;37.858;2023-07-28T05:24:13;11.55;;;7.70;;
34673;SDS011;20879;55.668;37.858;2023-07-28T05:26:49;9.93;;;7.15;;
34673;SDS011;20879;55.668;37.858;2023-07-28T05:29:21;11.65;;;6.70;;
34673;SDS011;20879;55.668;37.858;2023-07-28T05:32:00;7.78;;;6.13;;
34673;SDS011;20879;55.668;37.858;2023-07-28T05:34:37;8.85;;;5.57;;
34673;SDS011;20879;55.668;37.858;2023-07-28T05:37:17;7.30;;;5.30;;
34673;SDS011;20879;55.668;37.858;2023-07-28T05:39:49;8.27;;;4.80;;
34673;SDS011;20879;55.668;37.858;2023-07-28T05:42:21;8.13;;;4.68;;
34673;SDS011;20879;55.668;37.858;2023-07-28T05:45:00;7.38;;;4.90;;
34673;SDS011;20879;55.668;37.858;2023-07-28T05:47:31;6.82;;;4.10;;
34673;SDS011;20879;55.668;37.858;2023-07-28T05:50:04;5.65;;;4.38;;
34673;SDS011;20879;55.668;37.858;2023-07-28T05:52:45;6.15;;;4.20;;
34673;SDS011;20879;55.668;37.858;2023-07-28T05:55:14;9.23;;;5.85;;
34673;SDS011;20879;55.668;37.858;2023-07-28T06:00:16;5.38;;;3.67;;
34673;SDS011;20879;55.668;37.858;2023-07-28T06:02:47;6.60;;;4.38;;
34673;SDS011;20879;55.668;37.858;2023-07-28T06:05:42;7.47;;;4.40;;
34673;SDS011;20879;55.668;37.858;2023-07-28T06:08:15;7.03;;;4.70;;
34673;SDS011;20879;55.668;37.858;2023-07-28T06:10:48;6.63;;;4.57;;
34673;SDS011;20879;55.668;37.858;2023-07-28T06:13:22;9.65;;;5.72;;
34673;SDS011;20879;55.668;37.858;2023-07-28T06:15:54;7.10;;;4.90;;
34673;SDS011;20879;55.668;37.858;2023-07-28T06:18:24;6.32;;;5.03;;
34673;SDS011;20879;55.668;37.858;2023-07-28T06:21:06;11.60;;;8.15;;
34673;SDS011;20879;55.668;37.858;2023-07-28T06:23:39;8.52;;;5.40;;
34673;SDS011;20879;55.668;37.858;2023-07-28T06:26:14;9.65;;;4.95;;
34673;SDS011;20879;55.668;37.858;2023-07-28T06:28:44;9.75;;;4.75;;
34673;SDS011;20879;55.668;37.858;2023-07-28T06:31:17;9.35;;;5.22;;
34673;SDS011;20879;55.668;37.858;2023-07-28T06:33:52;5.97;;;4.07;;
34673;SDS011;20879;55.668;37.858;2023-07-28T06:36:21;9.02;;;5.13;;
34673;SDS011;20879;55.668;37.858;2023-07-28T06:39:01;8.95;;;4.85;;
34673;SDS011;20879;55.668;37.858;2023-07-28T06:41:32;13.82;;;6.50;;
34673;SDS011;20879;55.668;37.858;2023-07-28T06:44:07;11.57;;;5.40;;
34673;SDS011;20879;55.668;37.858;2023-07-28T06:46:41;16.33;;;5.55;;
34673;SDS011;20879;55.668;37.858;2023-07-28T06:49:12;8.45;;;4.45;;
34673;SDS011;20879;55.668;37.858;2023-07-28T06:51:41;14.68;;;4.30;;
34673;SDS011;20879;55.668;37.858;2023-07-28T06:54:20;8.00;;;4.03;;
34673;SDS011;20879;55.668;37.858;2023-07-28T06:56:55;10.63;;;4.25;;
34673;SDS011;20879;55.668;37.858;2023-07-28T06:59:32;10.32;;;4.90;;
34673;SDS011;20879;55.668;37.858;2023-07-28T07:02:10;12.90;;;4.95;;
34673;SDS011;20879;55.668;37.858;2023-07-28T07:04:45;8.98;;;4.90;;
34673;SDS011;20879;55.668;37.858;2023-07-28T07:07:24;12.43;;;4.57;;
34673;SDS011;20879;55.668;37.858;2023-07-28T07:10:06;9.82;;;5.13;;
34673;SDS011;20879;55.668;37.858;2023-07-28T07:12:37;9.93;;;4.45;;
34673;SDS011;20879;55.668;37.858;2023-07-28T07:15:08;10.07;;;5.37;;
34673;SDS011;20879;55.668;37.858;2023-07-28T07:17:43;12.60;;;4.97;;
34673;SDS011;20879;55.668;37.858;2023-07-28T07:20:17;13.77;;;4.97;;
34673;SDS011;20879;55.668;37.858;2023-07-28T07:22:49;14.07;;;5.10;;
34673;SDS011;20879;55.668;37.858;2023-07-28T07:25:25;13.98;;;5.47;;
34673;SDS011;20879;55.668;37.858;2023-07-28T07:28:04;13.43;;;5.70;;
34673;SDS011;20879;55.668;37.858;2023-07-28T07:30:39;13.85;;;5.78;;
34673;SDS011;20879;55.668;37.858;2023-07-28T07:33:09;14.45;;;6.00;;
34673;SDS011;20879;55.668;37.858;2023-07-28T07:35:43;12.80;;;5.65;;
34673;SDS011;20879;55.668;37.858;2023-07-28T07:38:17;12.48;;;5.78;;
34673;SDS011;20879;55.668;37.858;2023-07-28T07:40:58;15.55;;;5.72;;
34673;SDS011;20879;55.668;37.858;2023-07-28T07:43:29;12.65;;;5.55;;
34673;SDS011;20879;55.668;37.858;2023-07-28T07:46:02;11.55;;;5.18;;
34673;SDS011;20879;55.668;37.858;2023-07-28T07:48:33;11.98;;;6.00;;
34673;SDS011;20879;55.668;37.858;2023-07-28T07:51:09;11.65;;;5.75;;
34673;SDS011;20879;55.668;37.858;2023-07-28T07:53:44;13.15;;;5.60;;
34673;SDS011;20879;55.668;37.858;2023-07-28T07:56:23;17.25;;;6.43;;
34673;SDS011;20879;55.668;37.858;2023-07-28T07:59:02;8.93;;;5.82;;
34673;SDS011;20879;55.668;37.858;2023-07-28T08:01:33;11.63;;;5.80;;
34673;SDS011;20879;55.668;37.858;2023-07-28T08:04:08;12.48;;;5.55;;
34673;SDS011;20879;55.668;37.858;2023-07-28T08:06:42;13.00;;;5.72;;
34673;SDS011;20879;55.668;37.858;2023-07-28T08:09:19;12.85;;;4.47;;
34673;SDS011;20879;55.668;37.858;2023-07-28T08:11:59;24.85;;;5.32;;
34673;SDS011;20879;55.668;37.858;2023-07-28T08:14:37;21.95;;;6.28;;
34673;SDS011;20879;55.668;37.858;2023-07-28T08:17:10;13.48;;;4.70;;
34673;SDS011;20879;55.668;37.858;2023-07-28T08:19:41;12.40;;;5.10;;
34673;SDS011;20879;55.668;37.858;2023-07-28T08:22:18;14.55;;;5.10;;
34673;SDS011;20879;55.668;37.858;2023-07-28T08:24:52;11.63;;;5.05;;
34673;SDS011;20879;55.668;37.858;2023-07-28T08:27:33;13.23;;;5.50;;
34673;SDS011;20879;55.668;37.858;2023-07-28T08:30:03;12.32;;;4.15;;
34673;SDS011;20879;55.668;37.858;2023-07-28T08:32:40;9.60;;;4.30;;
34673;SDS011;20879;55.668;37.858;2023-07-28T08:35:11;6.72;;;4.28;;
34673;SDS011;20879;55.668;37.858;2023-07-28T08:37:42;8.88;;;4.70;;
34673;SDS011;20879;55.668;37.858;2023-07-28T08:40:14;8.10;;;4.50;;
34673;SDS011;20879;55.668;37.858;2023-07-28T08:42:50;7.72;;;4.75;;
34673;SDS011;20879;55.668;37.858;2023-07-28T08:45:21;10.50;;;4.15;;
34673;SDS011;20879;55.668;37.858;2023-07-28T08:47:53;9.73;;;3.97;;
34673;SDS011;20879;55.668;37.858;2023-07-28T08:50:23;13.57;;;4.75;;
34673;SDS011;20879;55.668;37.858;2023-07-28T08:52:56;11.98;;;4.20;;
34673;SDS011;20879;55.668;37.858;2023-07-28T08:55:31;9.05;;;4.10;;
34673;SDS011;20879;55.668;37.858;2023-07-28T08:58:18;9.55;;;4.10;;
34673;SDS011;20879;55.668;37.858;2023-07-28T09:00:54;10.23;;;4.22;;
34673;SDS011;20879;55.668;37.858;2023-07-28T09:03:39;10.95;;;4.82;;
34673;SDS011;20879;55.668;37.858;2023-07-28T09:06:16;10.60;;;4.15;;
34673;SDS011;20879;55.668;37.858;2023-07-28T09:09:00;10.32;;;4.63;;
34673;SDS011;20879;55.668;37.858;2023-07-28T09:11:45;9.50;;;4.43;;
34673;SDS011;20879;55.668;37.858;2023-07-28T09:14:24;9.15;;;4.60;;
34673;SDS011;20879;55.668;37.858;2023-07-28T09:19:50;19.38;;;5.13;;
34673;SDS011;20879;55.668;37.858;2023-07-28T09:22:21;17.23;;;5.40;;
34673;SDS011;20879;55.668;37.858;2023-07-28T09:24:54;23.33;;;5.53;;
34673;SDS011;20879;55.668;37.858;2023-07-28T09:27:28;15.88;;;5.55;;
34673;SDS011;20879;55.668;37.858;2023-07-28T09:30:00;11.48;;;6.05;;
34673;SDS011;20879;55.668;37.858;2023-07-28T09:32:32;11.20;;;6.20;;
34673;SDS011;20879;55.668;37.858;2023-07-28T09:35:08;13.45;;;5.82;;
34673;SDS011;20879;55.668;37.858;2023-07-28T09:37:47;10.82;;;5.90;;
34673;SDS011;20879;55.668;37.858;2023-07-28T09:40:22;13.45;;;6.82;;
34673;SDS011;20879;55.668;37.858;2023-07-28T09:42:55;12.20;;;6.32;;
34673;SDS011;20879;55.668;37.858;2023-07-28T09:45:27;14.77;;;7.25;;
34673;SDS011;20879;55.668;37.858;2023-07-28T09:48:05;13.60;;;6.43;;
34673;SDS011;20879;55.668;37.858;2023-07-28T09:50:37;13.68;;;6.70;;
34673;SDS011;20879;55.668;37.858;2023-07-28T09:53:13;12.50;;;7.00;;
34673;SDS011;20879;55.668;37.858;2023-07-28T09:55:52;15.68;;;6.90;;
34673;SDS011;20879;55.668;37.858;2023-07-28T09:58:30;16.95;;;7.07;;
34673;SDS011;20879;55.668;37.858;2023-07-28T10:01:09;13.70;;;7.60;;
34673;SDS011;20879;55.668;37.858;2023-07-28T10:03:40;12.30;;;7.47;;
34673;SDS011;20879;55.668;37.858;2023-07-28T10:06:17;12.32;;;7.35;;
34673;SDS011;20879;55.668;37.858;2023-07-28T10:11:32;12.25;;;7.25;;
34673;SDS011;20879;55.668;37.858;2023-07-28T10:14:07;15.52;;;8.07;;
34673;SDS011;20879;55.668;37.858;2023-07-28T10:16:42;16.77;;;7.53;;
34673;SDS011;20879;55.668;37.858;2023-07-28T10:19:14;14.60;;;7.80;;
34673;SDS011;20879;55.668;37.858;2023-07-28T10:21:58;12.95;;;7.75;;
34673;SDS011;20879;55.668;37.858;2023-07-28T10:27:28;16.23;;;7.78;;
34673;SDS011;20879;55.668;37.858;2023-07-28T10:30:09;14.80;;;8.38;;
34673;SDS011;20879;55.668;37.858;2023-07-28T10:32:48;14.73;;;8.73;;
34673;SDS011;20879;55.668;37.858;2023-07-28T10:35:25;14.77;;;7.95;;
34673;SDS011;20879;55.668;37.858;2023-07-28T10:41:11;11.70;;;7.55;;
34673;SDS011;20879;55.668;37.858;2023-07-28T10:44:10;14.95;;;8.50;;
34673;SDS011;20879;55.668;37.858;2023-07-28T10:46:45;14.63;;;8.30;;
34673;SDS011;20879;55.668;37.858;2023-07-28T10:49:21;16.00;;;8.67;;
34673;SDS011;20879;55.668;37.858;2023-07-28T10:51:56;11.27;;;8.27;;
34673;SDS011;20879;55.668;37.858;2023-07-28T10:54:26;13.15;;;8.75;;
34673;SDS011;20879;55.668;37.858;2023-07-28T10:57:03;14.52;;;8.30;;
34673;SDS011;20879;55.668;37.858;2023-07-28T10:59:41;14.30;;;8.02;;
34673;SDS011;20879;55.668;37.858;2023-07-28T11:02:20;12.60;;;7.65;;
34673;SDS011;20879;55.668;37.858;2023-07-28T11:04:52;11.10;;;7.53;;
34673;SDS011;20879;55.668;37.858;2023-07-28T11:10:04;12.52;;;7.70;;
34673;SDS011;20879;55.668;37.858;2023-07-28T11:12:40;15.35;;;8.77;;
34673;SDS011;20879;55.668;37.858;2023-07-28T11:15:20;12.20;;;7.93;;
34673;SDS011;20879;55.668;37.858;2023-07-28T11:17:59;10.40;;;7.90;;
34673;SDS011;20879;55.668;37.858;2023-07-28T11:20:31;13.10;;;7.43;;
34673;SDS011;20879;55.668;37.858;2023-07-28T11:23:09;8.05;;;5.93;;
34673;SDS011;20879;55.668;37.858;2023-07-28T11:25:44;10.05;;;6.18;;
34673;SDS011;20879;55.668;37.858;2023-07-28T11:28:16;9.88;;;6.35;;
34673;SDS011;20879;55.668;37.858;2023-07-28T11:30:54;11.02;;;6.90;;
34673;SDS011;20879;55.668;37.858;2023-07-28T11:33:30;11.73;;;6.80;;
34673;SDS011;20879;55.668;37.858;2023-07-28T11:36:05;14.07;;;7.18;;
34673;SDS011;20879;55.668;37.858;2023-07-28T11:38:43;11.43;;;6.65;;
34673;SDS011;20879;55.668;37.858;2023-07-28T11:43:54;10.40;;;6.65;;
34673;SDS011;20879;55.668;37.858;2023-07-28T11:46:32;12.75;;;7.57;;
34673;SDS011;20879;55.668;37.858;2023-07-28T11:49:12;11.90;;;7.85;;
34673;SDS011;20879;55.668;37.858;2023-07-28T11:51:51;11.05;;;7.95;;
34673;SDS011;20879;55.668;37.858;2023-07-28T11:57:01;16.00;;;8.35;;
34673;SDS011;20879;55.668;37.858;2023-07-28T11:59:39;13.55;;;8.00;;
34673;SDS011;20879;55.668;37.858;2023-07-28T12:02:09;14.23;;;8.32;;
34673;SDS011;20879;55.668;37.858;2023-07-28T12:04:43;13.70;;;7.50;;
34673;SDS011;20879;55.668;37.858;2023-07-28T12:07:27;13.48;;;7.57;;
34673;SDS011;20879;55.668;37.858;2023-07-28T12:10:03;13.77;;;9.00;;
34673;SDS011;20879;55.668;37.858;2023-07-28T12:12:40;14.63;;;8.85;;
34673;SDS011;20879;55.668;37.858;2023-07-28T12:15:25;11.38;;;7.82;;
34673;SDS011;20879;55.668;37.858;2023-07-28T12:18:10;13.57;;;8.57;;
34673;SDS011;20879;55.668;37.858;2023-07-28T12:20:47;14.68;;;10.00;;
34673;SDS011;20879;55.668;37.858;2023-07-28T12:23:28;11.68;;;10.02;;
34673;SDS011;20879;55.668;37.858;2023-07-28T12:26:14;15.90;;;10.88;;
34673;SDS011;20879;55.668;37.858;2023-07-28T12:28:55;15.00;;;11.15;;
34673;SDS011;20879;55.668;37.858;2023-07-28T12:31:41;14.27;;;11.52;;
34673;SDS011;20879;55.668;37.858;2023-07-28T12:34:18;15.25;;;11.10;;
34673;SDS011;20879;55.668;37.858;2023-07-28T12:36:52;12.73;;;10.00;;
34673;SDS011;20879;55.668;37.858;2023-07-28T12:39:30;13.25;;;9.90;;
34673;SDS011;20879;55.668;37.858;2023-07-28T12:42:08;12.82;;;10.02;;
34673;SDS011;20879;55.668;37.858;2023-07-28T12:50:00;11.60;;;9.68;;
34673;SDS011;20879;55.668;37.858;2023-07-28T12:52:45;14.55;;;10.70;;
34673;SDS011;20879;55.668;37.858;2023-07-28T12:55:24;13.88;;;10.57;;
34673;SDS011;20879;55.668;37.858;2023-07-28T12:57:56;13.98;;;10.75;;
34673;SDS011;20879;55.668;37.858;2023-07-28T13:00:28;13.68;;;11.05;;
34673;SDS011;20879;55.668;37.858;2023-07-28T13:03:03;11.68;;;9.32;;
34673;SDS011;20879;55.668;37.858;2023-07-28T13:05:35;13.57;;;10.55;;
34673;SDS011;20879;55.668;37.858;2023-07-28T13:08:12;13.98;;;10.00;;
34673;SDS011;20879;55.668;37.858;2023-07-28T13:10:42;13.07;;;9.95;;
34673;SDS011;20879;55.668;37.858;2023-07-28T13:13:17;12.82;;;9.57;;
34673;SDS011;20879;55.668;37.858;2023-07-28T13:15:57;12.73;;;9.90;;
34673;SDS011;20879;55.668;37.858;2023-07-28T13:21:06;15.98;;;9.45;;
34673;SDS011;20879;55.668;37.858;2023-07-28T13:23:37;10.45;;;9.13;;
34673;SDS011;20879;55.668;37.858;2023-07-28T13:26:14;12.20;;;10.43;;
34673;SDS011;20879;55.668;37.858;2023-07-28T13:28:46;15.32;;;10.63;;
34673;SDS011;20879;55.668;37.858;2023-07-28T13:31:18;14.75;;;10.82;;
34673;SDS011;20879;55.668;37.858;2023-07-28T13:33:54;14.52;;;11.02;;
34673;SDS011;20879;55.668;37.858;2023-07-28T13:36:27;16.05;;;11.52;;
34673;SDS011;20879;55.668;37.858;2023-07-28T13:39:04;12.13;;;10.50;;
34673;SDS011;20879;55.668;37.858;2023-07-28T13:41:34;14.60;;;9.85;;
34673;SDS011;20879;55.668;37.858;2023-07-28T13:44:04;9.48;;;6.68;;
34673;SDS011;20879;55.668;37.858;2023-07-28T13:46:42;9.55;;;6.18;;
34673;SDS011;20879;55.668;37.858;2023-07-28T13:49:13;9.15;;;5.72;;
34673;SDS011;20879;55.668;37.858;2023-07-28T13:51:49;7.05;;;5.93;;
34673;SDS011;20879;55.668;37.858;2023-07-28T13:54:29;13.77;;;6.85;;
34673;SDS011;20879;55.668;37.858;2023-07-28T13:57:07;8.35;;;5.80;;
34673;SDS011;20879;55.668;37.858;2023-07-28T13:59:38;8.43;;;5.00;;
34673;SDS011;20879;55.668;37.858;2023-07-28T14:02:17;7.25;;;4.65;;
34673;SDS011;20879;55.668;37.858;2023-07-28T14:04:59;6.90;;;4.35;;
34673;SDS011;20879;55.668;37.858;2023-07-28T14:07:34;7.50;;;4.50;;
34673;SDS011;20879;55.668;37.858;2023-07-28T14:10:04;6.78;;;4.68;;
34673;SDS011;20879;55.668;37.858;2023-07-28T14:12:34;7.55;;;4.72;;
34673;SDS011;20879;55.668;37.858;2023-07-28T14:15:06;8.88;;;5.22;;
34673;SDS011;20879;55.668;37.858;2023-07-28T14:17:40;8.18;;;4.72;;
34673;SDS011;20879;55.668;37.858;2023-07-28T14:20:11;6.43;;;4.47;;
34673;SDS011;20879;55.668;37.858;2023-07-28T14:22:46;5.75;;;4.22;;
34673;SDS011;20879;55.668;37.858;2023-07-28T14:25:15;7.28;;;4.57;;
34673;SDS011;20879;55.668;37.858;2023-07-28T14:27:46;7.95;;;4.05;;
34673;SDS011;20879;55.668;37.858;2023-07-28T14:30:17;6.25;;;3.67;;
34673;SDS011;20879;55.668;37.858;2023-07-28T14:32:49;6.03;;;3.65;;
34673;SDS011;20879;55.668;37.858;2023-07-28T14:35:26;7.10;;;4.00;;
34673;SDS011;20879;55.668;37.858;2023-07-28T14:38:03;5.13;;;3.35;;
34673;SDS011;20879;55.668;37.858;2023-07-28T14:40:39;6.43;;;3.88;;
34673;SDS011;20879;55.668;37.858;2023-07-28T14:43:11;4.57;;;2.70;;
34673;SDS011;20879;55.668;37.858;2023-07-28T14:45:43;4.40;;;2.55;;
34673;SDS011;20879;55.668;37.858;2023-07-28T14:48:13;3.70;;;2.58;;
34673;SDS011;20879;55.668;37.858;2023-07-28T14:50:43;3.28;;;2.63;;
34673;SDS011;20879;55.668;37.858;2023-07-28T14:56:08;4.75;;;3.10;;
34673;SDS011;20879;55.668;37.858;2023-07-28T14:58:45;6.55;;;3.58;;
34673;SDS011;20879;55.668;37.858;2023-07-28T15:01:30;6.88;;;2.90;;
34673;SDS011;20879;55.668;37.858;2023-07-28T15:04:05;7.30;;;3.15;;
34673;SDS011;20879;55.668;37.858;2023-07-28T15:06:41;4.50;;;2.63;;
34673;SDS011;20879;55.668;37.858;2023-07-28T15:09:21;4.28;;;2.95;;
34673;SDS011;20879;55.668;37.858;2023-07-28T15:11:51;3.85;;;2.55;;
34673;SDS011;20879;55.668;37.858;2023-07-28T15:14:23;6.68;;;3.53;;
34673;SDS011;20879;55.668;37.858;2023-07-28T15:19:25;6.90;;;2.60;;
34673;SDS011;20879;55.668;37.858;2023-07-28T15:21:56;5.20;;;2.70;;
34673;SDS011;20879;55.668;37.858;2023-07-28T15:24:30;4.85;;;2.38;;
34673;SDS011;20879;55.668;37.858;2023-07-28T15:27:03;3.88;;;2.35;;
34673;SDS011;20879;55.668;37.858;2023-07-28T15:29:34;3.38;;;2.38;;
34673;SDS011;20879;55.668;37.858;2023-07-28T15:32:18;6.65;;;3.08;;
34673;SDS011;20879;55.668;37.858;2023-07-28T15:34:52;4.70;;;2.70;;
34673;SDS011;20879;55.668;37.858;2023-07-28T15:37:26;5.18;;;3.15;;
34673;SDS011;20879;55.668;37.858;2023-07-28T15:40:00;8.48;;;2.80;;
34673;SDS011;20879;55.668;37.858;2023-07-28T15:42:31;5.68;;;2.72;;
34673;SDS011;20879;55.668;37.858;2023-07-28T15:45:02;6.07;;;2.90;;
34673;SDS011;20879;55.668;37.858;2023-07-28T15:47:34;3.58;;;2.75;;